Time;durP1;ratioP1;P1;durP2;ratioP2;P2;SDS_P1;SDS_P2;PMS_P1;PMS_P2;Temp;Humidity;BMP_temperature;BMP_pressure;BME280_temperature;BME280_humidity;BME280_pressure;Samples;Min_cycle;Max_cycle;Signal;HPM_P1;HPM_P2
2021/07/15 00:01:09;;;;;;;2.75;1.60;;;;;;;14.07;91.68;99831.09;4987940;28;20042;-78
2021/07/15 00:03:36;;;;;;;3.63;1.70;;;;;;;14.07;91.97;99836.50;4992043;28;20054;-77
2021/07/15 00:06:05;;;;;;;3.95;1.08;;;;;;;14.15;91.70;99830.22;4989640;28;20467;-76
2021/07/15 00:08:32;;;;;;;1.75;1.10;;;;;;;14.19;91.31;99840.47;4983939;28;20042;-78
2021/07/15 00:11:00;;;;;;;5.80;1.80;;;;;;;14.24;91.66;99840.81;4990804;28;20089;-78
2021/07/15 00:13:28;;;;;;;5.75;1.70;;;;;;;14.28;91.26;99844.81;4986850;28;20054;-77
2021/07/15 00:15:58;;;;;;;2.22;1.52;;;;;;;14.33;91.10;99841.59;4980228;28;20051;-77
2021/07/15 00:18:29;;;;;;;2.08;1.52;;;;;;;14.39;90.62;99850.84;4983415;28;20052;-77
2021/07/15 00:20:58;;;;;;;3.58;1.42;;;;;;;14.40;90.71;99853.34;4990318;28;20062;-76
2021/07/15 00:23:25;;;;;;;7.47;2.22;;;;;;;14.40;90.68;99861.44;4989290;28;20143;-77
2021/07/15 00:25:51;;;;;;;2.53;1.30;;;;;;;14.40;90.48;99855.22;4990367;28;20469;-76
2021/07/15 00:28:19;;;;;;;2.67;1.85;;;;;;;14.46;90.05;99859.94;4988658;28;20533;-77
2021/07/15 00:30:45;;;;;;;5.63;1.73;;;;;;;14.29;90.32;99870.78;4988943;28;20081;-76
2021/07/15 00:33:13;;;;;;;3.38;1.52;;;;;;;14.10;90.90;99871.25;4989332;28;20457;-76
2021/07/15 00:35:41;;;;;;;3.38;1.65;;;;;;;14.05;91.11;99868.22;4984930;28;20487;-77
2021/07/15 00:38:08;;;;;;;4.60;1.40;;;;;;;14.00;91.58;99870.59;4986604;28;20720;-75
2021/07/15 00:40:36;;;;;;;2.78;1.70;;;;;;;14.01;91.56;99878.53;4984392;28;20077;-78
2021/07/15 00:43:02;;;;;;;2.55;1.50;;;;;;;14.04;91.78;99877.31;4987092;28;20105;-77
2021/07/15 00:45:30;;;;;;;4.03;1.50;;;;;;;14.07;91.77;99876.97;4987876;28;20407;-79
2021/07/15 00:47:57;;;;;;;3.10;1.33;;;;;;;14.11;91.56;99886.41;4990144;28;20514;-77
2021/07/15 00:50:24;;;;;;;1.70;1.40;;;;;;;14.14;91.01;99880.66;4989734;28;21659;-77
2021/07/15 00:52:54;;;;;;;2.35;1.35;;;;;;;14.12;91.01;99882.69;4988251;28;20409;-78
2021/07/15 00:55:25;;;;;;;3.65;1.52;;;;;;;14.11;90.84;99874.78;4988620;28;20054;-76
2021/07/15 00:57:51;;;;;;;2.65;1.20;;;;;;;14.05;91.14;99873.59;4989387;28;20491;-77
2021/07/15 01:00:19;;;;;;;3.80;1.20;;;;;;;13.98;91.36;99876.19;4984187;28;20097;-76
2021/07/15 01:02:48;;;;;;;2.22;1.48;;;;;;;13.94;91.80;99868.59;4988863;28;20050;-75
2021/07/15 01:05:18;;;;;;;3.45;1.55;;;;;;;13.90;91.96;99875.38;4983962;28;20109;-75
2021/07/15 01:07:45;;;;;;;2.97;1.40;;;;;;;13.87;91.84;99875.72;4982001;28;20465;-76
2021/07/15 01:10:16;;;;;;;2.35;1.50;;;;;;;13.83;92.08;99874.38;4985413;28;20064;-78
2021/07/15 01:12:53;;;;;;;3.00;1.67;;;;;;;13.77;92.21;99878.63;4977465;28;20054;-77
2021/07/15 01:15:22;;;;;;;1.92;1.40;;;;;;;13.71;92.42;99887.38;4984243;28;20053;-79
2021/07/15 01:17:57;;;;;;;2.20;1.30;;;;;;;13.70;92.68;99902.72;4984021;28;20050;-75
2021/07/15 01:20:59;;;;;;;1.88;1.10;;;;;;;13.68;92.63;99903.91;4986442;28;20050;-79
2021/07/15 01:23:41;;;;;;;3.58;1.38;;;;;;;13.73;92.71;99906.94;4988912;28;20050;-78
2021/07/15 01:26:26;;;;;;;3.58;1.20;;;;;;;13.78;92.54;99904.56;4989231;28;20057;-78
2021/07/15 01:29:10;;;;;;;2.45;1.42;;;;;;;13.81;92.33;99897.97;5003900;23;20072;-62
2021/07/15 01:31:41;;;;;;;2.50;1.60;;;;;;;13.79;92.31;99889.22;5033119;28;20049;-65
2021/07/15 01:34:11;;;;;;;4.97;2.38;;;;;;;13.73;92.33;99893.44;5036840;28;20092;-61
2021/07/15 01:36:41;;;;;;;4.40;1.92;;;;;;;13.65;92.64;99894.31;5040247;28;20488;-60
2021/07/15 01:39:10;;;;;;;2.50;1.75;;;;;;;13.62;92.55;99899.22;5037142;28;20050;-62
2021/07/15 01:41:40;;;;;;;4.10;2.28;;;;;;;13.57;92.73;99897.03;5032024;28;20072;-62
2021/07/15 01:44:10;;;;;;;3.95;1.85;;;;;;;13.52;92.88;99904.81;5037314;28;20065;-64
2021/07/15 01:46:39;;;;;;;5.50;2.03;;;;;;;13.49;93.18;99898.88;5042685;28;20455;-64
2021/07/15 01:49:07;;;;;;;3.42;2.13;;;;;;;13.50;93.51;99896.06;5041068;28;20041;-62
2021/07/15 01:51:35;;;;;;;3.58;1.77;;;;;;;13.51;93.47;99886.09;5043676;28;20045;-63
2021/07/15 01:54:02;;;;;;;2.15;1.42;;;;;;;13.56;93.17;99883.72;5042044;28;20286;-59
2021/07/15 01:56:29;;;;;;;3.65;1.38;;;;;;;13.58;92.98;99877.13;5050149;28;21992;-60
2021/07/15 01:58:57;;;;;;;2.38;1.60;;;;;;;13.65;92.85;99875.44;5050377;28;20126;-64
2021/07/15 02:01:25;;;;;;;3.95;1.83;;;;;;;13.69;92.44;99867.84;5045845;28;20083;-61
2021/07/15 02:03:56;;;;;;;4.00;1.60;;;;;;;13.74;92.39;99860.94;5033245;28;20119;-57
2021/07/15 02:06:23;;;;;;;4.47;1.75;;;;;;;13.69;92.60;99862.44;5030678;28;20494;-61
2021/07/15 02:08:52;;;;;;;3.40;2.33;;;;;;;13.63;92.63;99858.59;5041838;28;20037;-64
2021/07/15 02:11:21;;;;;;;6.28;1.88;;;;;;;13.58;92.60;99866.34;5043348;28;20103;-62
2021/07/15 02:13:49;;;;;;;5.28;2.03;;;;;;;13.55;92.56;99868.56;5046087;28;20044;-61
2021/07/15 02:16:17;;;;;;;2.30;1.60;;;;;;;13.48;92.59;99872.94;5043448;28;20045;-61
2021/07/15 02:18:44;;;;;;;6.25;2.38;;;;;;;13.36;92.92;99881.38;5036158;28;20459;-61
2021/07/15 02:21:12;;;;;;;7.80;2.58;;;;;;;13.30;93.21;99878.56;5033214;28;20071;-62
2021/07/15 02:23:42;;;;;;;5.03;1.75;;;;;;;13.24;93.37;99877.38;5039107;28;20111;-61
2021/07/15 02:26:09;;;;;;;3.15;1.92;;;;;;;13.21;93.49;99876.88;5047750;28;20057;-63
2021/07/15 02:28:36;;;;;;;2.05;1.40;;;;;;;13.23;93.37;99874.84;5040242;28;20081;-63
2021/07/15 02:31:09;;;;;;;4.20;1.50;;;;;;;13.22;93.78;99882.09;5043962;28;20042;-61
2021/07/15 02:33:39;;;;;;;3.08;1.55;;;;;;;13.30;93.96;99886.63;5046891;28;20413;-62
2021/07/15 02:36:06;;;;;;;1.98;1.30;;;;;;;13.40;94.47;99884.59;5031587;28;20131;-62
2021/07/15 02:38:36;;;;;;;2.05;1.35;;;;;;;13.53;93.76;99882.22;5040380;28;20069;-67
2021/07/15 02:41:03;;;;;;;4.85;1.80;;;;;;;13.65;93.10;99888.94;5041536;28;20057;-59
2021/07/15 02:43:30;;;;;;;2.50;1.77;;;;;;;13.76;92.71;99874.25;5040021;28;20142;-65
2021/07/15 02:45:56;;;;;;;2.55;1.33;;;;;;;13.86;92.29;99879.44;5046489;28;20485;-60
2021/07/15 02:48:22;;;;;;;9.85;1.75;;;;;;;13.92;91.98;99884.97;5039720;28;20181;-62
2021/07/15 02:50:49;;;;;;;5.80;2.45;;;;;;;14.04;91.55;99886.25;5039320;28;20077;-62
2021/07/15 02:53:15;;;;;;;3.65;1.50;;;;;;;14.14;91.11;99890.63;5039828;28;20053;-63
2021/07/15 02:55:49;;;;;;;2.72;1.77;;;;;;;14.21;91.04;99894.31;5031193;28;20053;-61
2021/07/15 02:58:19;;;;;;;4.57;1.73;;;;;;;14.38;90.49;99886.94;5040074;28;20127;-63
2021/07/15 03:00:52;;;;;;;2.20;1.48;;;;;;;14.41;90.19;99890.13;5042780;28;20386;-62
2021/07/15 03:03:24;;;;;;;2.90;1.63;;;;;;;14.44;90.24;99891.63;5034177;28;20451;-61
2021/07/15 03:05:59;;;;;;;4.70;1.70;;;;;;;14.46;90.41;99898.59;5041598;28;20200;-59
2021/07/15 03:08:30;;;;;;;3.15;1.65;;;;;;;14.50;90.27;99899.06;5041449;28;20045;-64
2021/07/15 03:11:00;;;;;;;2.03;1.30;;;;;;;14.52;90.13;99894.31;5031804;28;20526;-59
2021/07/15 03:13:27;;;;;;;3.80;1.40;;;;;;;14.53;90.13;99898.69;5040663;28;20099;-61
2021/07/15 03:15:53;;;;;;;3.60;1.40;;;;;;;14.53;90.27;99904.09;5038767;28;20072;-65
2021/07/15 03:18:22;;;;;;;1.52;1.00;;;;;;;14.55;90.30;99902.91;5039712;28;20049;-62
2021/07/15 03:20:50;;;;;;;2.90;1.73;;;;;;;14.58;90.09;99902.56;5041398;28;20416;-62
2021/07/15 03:23:19;;;;;;;1.98;1.50;;;;;;;14.62;90.19;99897.63;5032808;28;20118;-58
2021/07/15 03:25:48;;;;;;;7.90;1.50;;;;;;;14.69;90.01;99904.03;5030209;28;20046;-63
2021/07/15 03:28:17;;;;;;;3.33;1.60;;;;;;;14.76;89.82;99898.72;5038229;28;20394;-61
2021/07/15 03:30:45;;;;;;;3.10;1.70;;;;;;;14.82;89.54;99896.16;5037908;28;20184;-65
2021/07/15 03:33:12;;;;;;;3.38;1.55;;;;;;;14.95;89.02;99900.13;5045049;28;20049;-59
2021/07/15 03:35:40;;;;;;;2.13;1.30;;;;;;;15.15;88.54;99906.69;5031007;28;20516;-64
2021/07/15 03:38:08;;;;;;;3.10;1.58;;;;;;;15.23;87.93;99894.97;5032659;28;20119;-61
2021/07/15 03:40:35;;;;;;;2.17;1.42;;;;;;;15.28;87.94;99879.06;5029683;28;20508;-61
2021/07/15 03:43:03;;;;;;;4.28;1.60;;;;;;;15.36;87.84;99874.41;5045792;28;20133;-66
2021/07/15 03:45:31;;;;;;;2.60;1.50;;;;;;;15.63;86.17;99877.56;5048062;28;20056;-61
2021/07/15 03:47:59;;;;;;;2.40;1.52;;;;;;;15.77;85.64;99868.59;5045209;28;20399;-61
2021/07/15 03:50:27;;;;;;;7.10;2.20;;;;;;;15.94;84.87;99864.66;5036662;28;20519;-62
2021/07/15 03:52:56;;;;;;;1.80;1.40;;;;;;;16.00;85.13;99860.38;5035016;28;20080;-62
2021/07/15 03:55:24;;;;;;;3.55;1.65;;;;;;;15.94;85.30;99853.84;5046831;28;20049;-61
2021/07/15 03:57:52;;;;;;;3.10;1.33;;;;;;;15.87;86.39;99858.34;5044885;28;20111;-61
2021/07/15 04:00:21;;;;;;;3.80;1.30;;;;;;;15.85;86.79;99868.50;5030114;28;20052;-58
2021/07/15 04:02:51;;;;;;;4.47;1.20;;;;;;;15.88;86.82;99870.84;5032500;28;20049;-61
2021/07/15 04:05:20;;;;;;;2.72;1.63;;;;;;;16.06;86.06;99870.44;5034020;28;20053;-61
2021/07/15 04:07:48;;;;;;;1.17;0.98;;;;;;;16.13;85.76;99871.38;5039246;28;20134;-60
2021/07/15 04:10:17;;;;;;;1.90;1.10;;;;;;;16.13;85.78;99876.78;5028491;28;20098;-63
2021/07/15 04:12:46;;;;;;;6.15;1.30;;;;;;;16.12;86.46;99883.25;5043416;28;20057;-65
2021/07/15 04:15:16;;;;;;;2.22;1.48;;;;;;;16.11;86.72;99886.97;5039766;28;20505;-60
2021/07/15 04:17:47;;;;;;;1.70;1.40;;;;;;;16.11;86.95;99888.84;5037770;28;20049;-61
2021/07/15 04:20:18;;;;;;;1.80;1.20;;;;;;;16.11;86.89;99889.69;5047464;28;20119;-61
2021/07/15 04:22:46;;;;;;;2.45;1.20;;;;;;;16.11;86.92;99892.38;5041453;28;20091;-63
2021/07/15 04:25:16;;;;;;;1.95;1.40;;;;;;;16.09;87.45;99902.53;5034528;28;20100;-61
2021/07/15 04:27:44;;;;;;;2.15;1.25;;;;;;;16.12;86.89;99894.06;5038982;28;20053;-63
2021/07/15 04:30:12;;;;;;;2.63;1.65;;;;;;;16.13;87.07;99894.91;5033980;28;20049;-61
2021/07/15 04:32:41;;;;;;;3.65;1.40;;;;;;;16.09;86.73;99884.44;5034760;28;20080;-64
2021/07/15 04:35:09;;;;;;;4.60;1.70;;;;;;;16.08;86.98;99873.78;5031701;28;20092;-62
2021/07/15 04:37:39;;;;;;;3.17;1.45;;;;;;;16.05;87.00;99866.06;5048595;28;20049;-61
2021/07/15 04:40:08;;;;;;;3.70;1.67;;;;;;;16.04;87.05;99856.25;5038626;28;20041;-62
2021/07/15 04:42:37;;;;;;;6.50;1.88;;;;;;;15.98;87.65;99859.72;5031490;28;20049;-61
2021/07/15 04:45:05;;;;;;;2.97;2.05;;;;;;;16.01;87.58;99883.72;5037441;28;20417;-68
2021/07/15 04:47:32;;;;;;;2.22;1.67;;;;;;;16.08;87.41;99888.16;5033185;28;20394;-61
2021/07/15 04:49:59;;;;;;;2.42;1.65;;;;;;;16.16;87.58;99894.53;5042689;28;20041;-60
2021/07/15 04:52:28;;;;;;;1.98;1.20;;;;;;;16.22;87.40;99896.47;5039315;28;20107;-59
2021/07/15 04:54:58;;;;;;;5.20;1.90;;;;;;;16.27;87.08;99903.00;5034673;28;20042;-62
2021/07/15 04:57:25;;;;;;;2.53;1.90;;;;;;;16.32;87.70;99902.41;5033617;28;20045;-64
2021/07/15 04:59:51;;;;;;;4.03;1.88;;;;;;;16.43;87.49;99901.09;5036115;28;20123;-59
2021/07/15 05:02:21;;;;;;;4.97;1.92;;;;;;;16.65;86.63;99909.06;5028786;28;20456;-63
2021/07/15 05:04:47;;;;;;;2.00;1.33;;;;;;;16.86;85.71;99921.00;5044501;28;20053;-62
2021/07/15 05:07:13;;;;;;;3.08;1.80;;;;;;;17.04;84.87;99921.38;5036349;28;20062;-64
2021/07/15 05:09:40;;;;;;;4.45;1.50;;;;;;;17.26;84.09;99922.22;5033848;28;20045;-61
2021/07/15 05:12:09;;;;;;;3.83;2.30;;;;;;;17.46;84.44;99934.09;5035130;28;20080;-64
2021/07/15 05:14:40;;;;;;;3.88;1.98;;;;;;;17.67;83.96;99929.66;5033398;28;20083;-62
2021/07/15 05:17:07;;;;;;;2.50;1.65;;;;;;;17.85;83.66;99921.88;5038812;28;20049;-64
2021/07/15 05:19:33;;;;;;;3.38;1.70;;;;;;;17.96;82.68;99923.19;5029619;28;20134;-62
2021/07/15 05:22:00;;;;;;;3.53;2.17;;;;;;;18.05;82.91;99920.13;5031977;28;20045;-64
2021/07/15 05:24:27;;;;;;;3.13;2.25;;;;;;;18.10;82.10;99919.50;5031284;28;20053;-61
2021/07/15 05:26:54;;;;;;;3.30;1.73;;;;;;;18.19;81.31;99917.47;5044587;28;20471;-62
2021/07/15 05:29:22;;;;;;;2.63;1.50;;;;;;;18.31;79.63;99911.25;5037952;28;20061;-61
2021/07/15 05:31:48;;;;;;;2.38;1.63;;;;;;;18.32;78.74;99921.09;5040412;28;20384;-64
2021/07/15 05:34:17;;;;;;;2.88;1.73;;;;;;;18.46;78.12;99930.13;5043224;28;20095;-62
2021/07/15 05:36:44;;;;;;;3.30;1.95;;;;;;;18.50;77.41;99928.69;5041466;28;20135;-65
2021/07/15 05:39:11;;;;;;;3.70;2.08;;;;;;;18.54;77.90;99931.84;5037331;28;20462;-62
2021/07/15 05:41:37;;;;;;;3.08;2.35;;;;;;;18.53;79.59;99924.72;5043689;28;20069;-64
2021/07/15 05:44:04;;;;;;;2.40;1.70;;;;;;;18.59;79.44;99923.94;5044119;28;20099;-64
2021/07/15 05:46:32;;;;;;;2.75;2.20;;;;;;;18.64;77.99;99922.28;5033254;28;20107;-62
2021/07/15 05:48:58;;;;;;;1.90;1.40;;;;;;;18.71;78.37;99930.47;5035750;28;20095;-61
2021/07/15 05:51:24;;;;;;;2.85;2.00;;;;;;;18.68;77.27;99934.41;5044336;28;20049;-65
2021/07/15 05:53:51;;;;;;;2.72;1.70;;;;;;;18.72;77.28;99940.31;5042093;28;20450;-60
2021/07/15 05:56:17;;;;;;;3.88;1.77;;;;;;;18.74;76.96;99931.94;5036832;28;20049;-64
2021/07/15 05:58:44;;;;;;;5.28;1.73;;;;;;;18.68;77.23;99936.31;5032149;28;20107;-66
2021/07/15 06:01:10;;;;;;;2.10;1.70;;;;;;;18.63;78.53;99941.50;5032388;28;20046;-62
2021/07/15 06:03:37;;;;;;;4.85;2.53;;;;;;;18.61;79.93;99946.31;5041803;28;20436;-63
2021/07/15 06:06:04;;;;;;;4.50;2.35;;;;;;;18.57;79.70;99948.56;5032607;28;20045;-63
2021/07/15 06:08:30;;;;;;;3.35;2.30;;;;;;;18.56;80.17;99952.31;5045361;28;20500;-63
2021/07/15 06:10:57;;;;;;;4.75;2.67;;;;;;;18.48;80.74;99952.53;5039224;28;20099;-62
2021/07/15 06:13:23;;;;;;;2.97;2.08;;;;;;;18.29;82.53;99964.13;5031622;28;20049;-64
2021/07/15 06:15:49;;;;;;;2.60;2.05;;;;;;;18.27;83.15;99975.19;5033788;28;20198;-64
2021/07/15 06:18:16;;;;;;;2.65;2.00;;;;;;;18.29;82.33;99973.09;5036631;28;20049;-62
2021/07/15 06:20:43;;;;;;;3.72;2.20;;;;;;;18.21;83.50;99977.84;5040219;28;20065;-62
2021/07/15 06:23:10;;;;;;;6.00;2.40;;;;;;;18.27;82.69;99969.75;5049369;28;20044;-63
2021/07/15 06:25:36;;;;;;;3.67;2.10;;;;;;;18.39;81.65;99975.47;5037439;28;20045;-65
2021/07/15 06:28:02;;;;;;;4.45;2.20;;;;;;;18.50;81.31;99974.06;5045717;28;20492;-63
2021/07/15 06:30:29;;;;;;;3.28;2.00;;;;;;;18.57;80.74;99972.19;5041893;28;20254;-63
2021/07/15 06:32:55;;;;;;;3.17;2.33;;;;;;;18.66;81.27;99971.00;5042827;28;20053;-67
2021/07/15 06:35:23;;;;;;;3.17;2.30;;;;;;;18.68;82.84;99977.91;5037239;28;20049;-64
2021/07/15 06:37:52;;;;;;;3.22;2.55;;;;;;;18.90;80.27;99975.91;5030278;28;20045;-63
2021/07/15 06:40:19;;;;;;;2.55;2.00;;;;;;;19.03;79.28;99985.13;5030017;28;20046;-65
2021/07/15 06:42:46;;;;;;;3.75;2.00;;;;;;;19.27;78.34;99984.56;5038713;28;20528;-62
2021/07/15 06:45:13;;;;;;;3.97;2.50;;;;;;;19.27;76.59;99984.56;5041921;28;20408;-62
2021/07/15 06:47:40;;;;;;;4.53;2.28;;;;;;;19.50;75.79;99979.56;5033067;28;20078;-65
2021/07/15 06:50:10;;;;;;;4.55;2.22;;;;;;;19.82;74.28;99974.38;5033959;28;20111;-62
2021/07/15 06:52:36;;;;;;;2.90;1.83;;;;;;;20.05;73.34;99965.75;5030765;28;20080;-63
2021/07/15 06:55:06;;;;;;;4.25;2.40;;;;;;;19.82;73.03;99963.47;5037411;28;20049;-67
2021/07/15 06:57:33;;;;;;;2.40;1.60;;;;;;;20.22;72.62;99963.41;5037315;28;20096;-65
2021/07/15 07:00:00;;;;;;;2.80;1.70;;;;;;;20.53;71.65;99962.72;5030681;28;20049;-66
2021/07/15 07:02:26;;;;;;;2.42;1.52;;;;;;;20.82;69.94;99973.06;5031335;28;20084;-64
2021/07/15 07:04:53;;;;;;;2.20;1.77;;;;;;;20.96;69.80;99961.03;5025524;28;20076;-65
2021/07/15 07:07:19;;;;;;;4.30;2.30;;;;;;;21.08;69.68;99966.66;5040561;28;20053;-65
2021/07/15 07:09:45;;;;;;;2.95;1.58;;;;;;;21.65;68.96;99967.50;5040471;28;20048;-65
2021/07/15 07:12:13;;;;;;;3.67;2.17;;;;;;;22.01;67.19;99952.25;5040893;28;20174;-64
2021/07/15 07:14:39;;;;;;;2.50;1.70;;;;;;;22.11;65.87;99949.88;5041706;28;20050;-65
2021/07/15 07:17:06;;;;;;;4.22;1.75;;;;;;;22.22;65.55;99956.50;5044840;28;20095;-67
2021/07/15 07:19:32;;;;;;;3.13;1.40;;;;;;;22.37;64.80;99946.84;5044960;28;20107;-66
2021/07/15 07:21:58;;;;;;;1.42;0.95;;;;;;;22.85;60.54;99950.69;5030365;28;20080;-65
2021/07/15 07:24:25;;;;;;;4.25;1.50;;;;;;;22.62;59.01;99948.66;5044312;28;20080;-64
2021/07/15 07:26:51;;;;;;;1.02;0.82;;;;;;;22.58;60.18;99955.63;5030489;28;20111;-64
2021/07/15 07:29:19;;;;;;;1.35;1.05;;;;;;;22.44;62.42;99955.81;5030569;28;20554;-65
2021/07/15 07:31:45;;;;;;;1.77;1.08;;;;;;;22.48;60.78;99959.75;5030643;28;20045;-63
2021/07/15 07:34:11;;;;;;;3.75;1.20;;;;;;;22.42;60.76;99960.66;5035119;28;20107;-67
2021/07/15 07:36:37;;;;;;;3.45;1.13;;;;;;;22.63;59.82;99951.16;5038774;28;20053;-65
2021/07/15 07:39:05;;;;;;;1.60;0.90;;;;;;;22.73;57.17;99953.34;5037364;28;20045;-66
2021/07/15 07:41:32;;;;;;;1.38;0.95;;;;;;;22.75;58.45;99960.28;5041534;28;20110;-63
2021/07/15 07:43:58;;;;;;;1.70;0.95;;;;;;;22.78;59.50;99967.19;5037273;28;20571;-65
2021/07/15 07:46:26;;;;;;;2.15;1.27;;;;;;;22.72;59.02;99968.09;5033779;28;20501;-65
2021/07/15 07:48:52;;;;;;;1.15;0.85;;;;;;;22.72;58.39;99966.19;5039884;28;20107;-65
2021/07/15 07:51:18;;;;;;;3.33;1.20;;;;;;;22.53;58.58;99971.91;5032628;28;20053;-65
2021/07/15 07:53:45;;;;;;;4.70;1.17;;;;;;;22.49;58.51;99968.78;5036432;28;20045;-65
2021/07/15 07:56:12;;;;;;;1.77;0.90;;;;;;;22.80;55.94;99965.03;5044377;28;20493;-63
2021/07/15 07:58:38;;;;;;;0.82;0.70;;;;;;;23.46;55.03;99966.84;5030900;28;20467;-67
2021/07/15 08:01:05;;;;;;;2.40;0.90;;;;;;;23.39;54.48;99965.28;5047131;28;20090;-64
2021/07/15 08:03:32;;;;;;;1.52;0.90;;;;;;;23.37;54.05;99951.84;5042791;28;20049;-63
2021/07/15 08:05:59;;;;;;;2.40;0.77;;;;;;;23.29;52.68;99952.16;5041778;28;20550;-64
2021/07/15 08:08:26;;;;;;;0.98;0.70;;;;;;;23.35;52.65;99959.44;5042761;28;20053;-66
2021/07/15 08:10:53;;;;;;;1.45;0.70;;;;;;;23.61;52.74;99950.84;5045197;28;20068;-66
2021/07/15 08:13:20;;;;;;;0.95;0.60;;;;;;;23.74;52.51;99959.91;5038399;28;20489;-65
2021/07/15 08:15:46;;;;;;;2.63;1.00;;;;;;;23.29;54.63;99958.47;5043422;28;20246;-61
2021/07/15 08:18:12;;;;;;;3.38;1.05;;;;;;;23.58;51.40;99945.00;5040982;28;20075;-63
2021/07/15 08:20:40;;;;;;;1.20;0.80;;;;;;;24.18;51.18;99947.50;5035399;28;20511;-65
2021/07/15 08:23:07;;;;;;;1.60;0.75;;;;;;;24.16;51.89;99949.66;5044655;28;20048;-65
2021/07/15 08:25:34;;;;;;;1.25;0.80;;;;;;;24.43;49.92;99945.34;5037346;28;20250;-66
2021/07/15 08:28:00;;;;;;;1.52;0.77;;;;;;;24.74;50.58;99938.59;5042884;28;20048;-66
2021/07/15 08:30:26;;;;;;;1.33;0.80;;;;;;;24.40;51.35;99942.25;5044157;28;20045;-65
2021/07/15 08:32:53;;;;;;;1.23;0.60;;;;;;;24.68;49.77;99938.72;5039260;28;20118;-65
2021/07/15 08:35:19;;;;;;;0.75;0.70;;;;;;;24.68;48.09;99941.44;5038906;28;20057;-65
2021/07/15 08:37:47;;;;;;;1.50;0.80;;;;;;;24.54;47.85;99940.91;5044740;28;20045;-65
2021/07/15 08:40:14;;;;;;;3.00;0.60;;;;;;;24.10;48.26;99939.63;5039279;28;20049;-63
2021/07/15 08:42:42;;;;;;;1.67;1.13;;;;;;;23.87;51.85;99940.47;5039947;28;20057;-66
2021/07/15 08:45:10;;;;;;;2.38;0.90;;;;;;;23.84;50.93;99933.56;5044611;28;20045;-65
2021/07/15 08:47:38;;;;;;;1.05;0.80;;;;;;;24.00;51.24;99928.44;5040715;28;20102;-65
2021/07/15 08:50:05;;;;;;;1.67;0.90;;;;;;;24.16;51.73;99938.69;5040379;28;20040;-67
2021/07/15 08:52:34;;;;;;;1.65;0.90;;;;;;;24.31;51.57;99941.78;5042399;28;20053;-65
2021/07/15 08:55:16;;;;;;;0.90;0.70;;;;;;;24.30;48.80;99939.25;5062788;22;20045;-78
2021/07/15 08:57:43;;;;;;;1.70;0.85;;;;;;;24.41;49.51;99936.53;5036687;28;20356;-78
2021/07/15 09:00:12;;;;;;;2.47;1.17;;;;;;;24.17;48.50;99935.69;5045018;28;20052;-80
2021/07/15 09:02:39;;;;;;;3.70;1.70;;;;;;;24.20;48.96;99934.38;5039206;28;20045;-78
2021/07/15 09:05:07;;;;;;;2.97;1.20;;;;;;;24.33;49.63;99930.56;5046564;28;20451;-80
2021/07/15 09:07:33;;;;;;;1.70;0.98;;;;;;;24.63;47.68;99935.88;5046907;28;20116;-79
2021/07/15 09:10:02;;;;;;;2.97;1.00;;;;;;;24.65;50.07;99945.53;5042254;28;20264;-79
2021/07/15 09:12:28;;;;;;;1.25;1.08;;;;;;;24.45;48.20;99939.59;5046970;28;20052;-75
2021/07/15 09:14:56;;;;;;;1.60;1.20;;;;;;;24.28;51.11;99946.91;5045924;28;20045;-78
2021/07/15 09:17:32;;;;;;;2.55;1.13;;;;;;;24.12;52.47;99948.44;5037209;28;20052;-79
2021/07/15 09:19:59;;;;;;;1.53;1.27;;;;;;;24.09;52.21;99958.00;5037720;28;20045;-76
2021/07/15 09:22:26;;;;;;;3.28;1.10;;;;;;;24.54;49.20;99964.75;5041184;28;20489;-78
2021/07/15 09:24:53;;;;;;;1.30;0.93;;;;;;;24.64;50.46;99964.97;5039189;28;20044;-76
2021/07/15 09:27:23;;;;;;;1.83;1.10;;;;;;;25.07;48.77;99953.50;5047472;28;20057;-78
2021/07/15 09:30:07;;;;;;;4.63;1.15;;;;;;;25.53;49.29;99965.31;5036306;28;21078;-79
2021/07/15 09:32:33;;;;;;;1.58;1.00;;;;;;;25.92;48.08;99968.97;5039800;28;20041;-80
2021/07/15 09:35:05;;;;;;;1.33;1.10;;;;;;;25.99;46.00;99979.81;5047373;28;20493;-78
2021/07/15 09:37:34;;;;;;;1.20;0.90;;;;;;;25.45;47.06;99991.25;5042945;28;20053;-80
2021/07/15 09:40:01;;;;;;;2.30;1.10;;;;;;;25.53;45.85;99987.28;5039866;28;20041;-77
2021/07/15 09:42:29;;;;;;;1.73;1.20;;;;;;;25.36;47.58;99988.09;5044579;28;20067;-73
2021/07/15 09:44:55;;;;;;;2.35;0.95;;;;;;;25.05;47.39;99985.84;5046214;28;20068;-78
2021/07/15 09:47:38;;;;;;;1.88;0.95;;;;;;;25.10;48.43;99993.34;5039899;28;20631;-78
2021/07/15 09:50:25;;;;;;;1.70;1.00;;;;;;;25.15;48.80;99987.97;5037361;28;20463;-80
2021/07/15 09:52:52;;;;;;;1.70;0.93;;;;;;;24.99;47.45;99989.56;5043806;28;20489;-74
2021/07/15 09:55:20;;;;;;;2.50;0.98;;;;;;;25.17;49.99;99983.88;5045681;28;20095;-79
2021/07/15 09:58:01;;;;;;;2.05;1.15;;;;;;;25.14;49.20;99989.06;5044762;28;20095;-79
2021/07/15 10:00:35;;;;;;;1.70;1.30;;;;;;;24.69;50.69;99985.09;5043422;28;20044;-75
2021/07/15 10:03:02;;;;;;;1.60;1.02;;;;;;;25.19;50.04;99987.22;5036467;28;20055;-75
2021/07/15 10:05:30;;;;;;;2.15;1.35;;;;;;;25.66;51.40;99984.19;5046605;28;20045;-76
2021/07/15 10:08:05;;;;;;;3.70;1.10;;;;;;;26.05;48.25;99984.31;5046071;28;20409;-75
2021/07/15 10:10:32;;;;;;;3.25;1.17;;;;;;;26.37;44.90;99990.03;5051605;28;20044;-79
2021/07/15 10:13:11;;;;;;;1.98;1.42;;;;;;;26.36;45.74;99986.44;5044665;28;20671;-77
2021/07/15 10:15:38;;;;;;;3.40;1.70;;;;;;;26.30;45.44;99992.13;5041572;28;20294;-80
2021/07/15 10:18:05;;;;;;;3.47;1.33;;;;;;;26.30;46.51;99992.94;5047512;28;20046;-79
2021/07/15 10:20:31;;;;;;;2.63;1.20;;;;;;;26.78;44.18;99991.41;5045411;28;20052;-74
2021/07/15 10:22:58;;;;;;;2.03;1.27;;;;;;;26.80;44.58;99991.97;5048176;28;20049;-80
2021/07/15 10:25:24;;;;;;;1.60;1.02;;;;;;;26.68;44.88;99997.63;5044196;28;20493;-76
2021/07/15 10:27:52;;;;;;;1.70;1.05;;;;;;;27.47;43.87;99988.03;5046494;28;20059;-74
2021/07/15 10:30:20;;;;;;;4.50;1.40;;;;;;;27.65;41.40;99988.53;5050862;28;20331;-78
2021/07/15 10:32:48;;;;;;;1.73;1.27;;;;;;;27.57;42.11;99988.97;5040780;28;20529;-76
2021/07/15 10:35:16;;;;;;;2.55;1.63;;;;;;;27.58;42.42;99987.88;5042416;28;20111;-75
2021/07/15 10:37:46;;;;;;;3.25;1.10;;;;;;;27.29;42.98;99983.75;5040929;28;20096;-78
2021/07/15 10:40:16;;;;;;;1.70;1.23;;;;;;;26.82;45.30;99978.78;5035443;28;20377;-78
2021/07/15 10:42:43;;;;;;;2.55;1.10;;;;;;;26.69;45.88;99984.69;5043601;28;20451;-78
2021/07/15 10:45:12;;;;;;;2.25;1.10;;;;;;;26.29;44.44;99988.53;5038687;28;20091;-81
2021/07/15 10:47:40;;;;;;;1.63;1.10;;;;;;;26.22;44.59;99993.38;5032326;28;20042;-79
2021/07/15 10:50:09;;;;;;;2.33;1.20;;;;;;;26.19;45.83;99986.47;5034558;28;20037;-78
2021/07/15 10:52:39;;;;;;;1.38;1.10;;;;;;;26.28;44.48;99989.59;5038003;28;20096;-78
2021/07/15 10:55:07;;;;;;;1.33;1.00;;;;;;;26.78;43.78;99999.66;5034325;28;20041;-78
2021/07/15 10:57:34;;;;;;;2.28;1.17;;;;;;;27.27;43.27;99988.69;5038085;28;20057;-78
2021/07/15 11:00:24;;;;;;;2.08;1.42;;;;;;;27.50;42.95;99993.03;5035387;28;20083;-77
2021/07/15 11:03:23;;;;;;;1.65;1.15;;;;;;;27.62;42.55;99994.53;5039900;28;20037;-78
2021/07/15 11:05:54;;;;;;;2.50;1.08;;;;;;;27.73;41.96;99995.50;5032377;28;20056;-79
2021/07/15 11:09:00;;;;;;;1.80;1.05;;;;;;;27.86;40.68;99999.72;5034780;28;20052;-76
2021/07/15 11:11:47;;;;;;;;;;;;;;;27.62;43.33;99996.47;5027426;28;20049;-77
2021/07/15 11:14:37;;;;;;;2.38;1.48;;;;;;;27.24;41.50;99997.47;5024725;28;20027;-77
2021/07/15 11:17:25;;;;;;;2.80;1.38;;;;;;;27.28;41.71;100009.63;5042171;28;20049;-78
2021/07/15 11:20:00;;;;;;;3.28;1.50;;;;;;;27.34;42.34;100011.34;5033434;28;20047;-77
2021/07/15 11:22:49;;;;;;;2.63;1.25;;;;;;;27.26;43.22;100018.16;5038948;28;20048;-78
2021/07/15 11:25:18;;;;;;;1.80;1.25;;;;;;;27.53;43.42;100007.13;5028334;28;20514;-78
2021/07/15 11:27:48;;;;;;;1.98;1.30;;;;;;;26.82;43.84;100014.56;5034468;28;20097;-78
2021/07/15 11:30:42;;;;;;;1.55;1.10;;;;;;;26.87;42.71;100011.03;5031656;28;20052;-79
2021/07/15 11:33:31;;;;;;;2.08;1.17;;;;;;;26.66;43.79;100009.97;5002971;28;20473;-78
2021/07/15 11:36:01;;;;;;;1.15;0.75;;;;;;;26.50;44.88;100001.50;5026167;28;20049;-77
2021/07/15 11:38:30;;;;;;;2.72;1.52;;;;;;;26.04;47.07;100004.63;5038813;28;20574;-77
2021/07/15 11:41:01;;;;;;;1.63;1.23;;;;;;;26.31;46.07;100000.13;5039765;28;20045;-78
2021/07/15 11:43:32;;;;;;;2.03;1.20;;;;;;;26.01;47.39;100000.47;5035619;28;20496;-77